sensor_id;sensor_type;location;lat;lon;timestamp;pressure;altitude;pressure_sealevel;temperature;humidity
80747;BME280;76868;50.218;14.322;2024-03-22T00:02:15;99637.22;;;21.28;51.20
80747;BME280;76868;50.218;14.322;2024-03-22T00:04:40;99633.16;;;21.26;51.40
80747;BME280;76868;50.218;14.322;2024-03-22T00:07:06;99632.78;;;21.27;51.16
80747;BME280;76868;50.218;14.322;2024-03-22T00:09:31;99620.38;;;21.25;51.10
80747;BME280;76868;50.218;14.322;2024-03-22T00:11:57;99627.91;;;21.24;51.34
80747;BME280;76868;50.218;14.322;2024-03-22T00:14:22;99623.97;;;21.25;51.22
80747;BME280;76868;50.218;14.322;2024-03-22T00:16:47;99622.00;;;21.26;51.20
80747;BME280;76868;50.218;14.322;2024-03-22T00:19:13;99633.84;;;21.23;51.37
80747;BME280;76868;50.218;14.322;2024-03-22T00:21:38;99625.13;;;21.24;51.50
80747;BME280;76868;50.218;14.322;2024-03-22T00:24:04;99627.47;;;21.22;51.31
80747;BME280;76868;50.218;14.322;2024-03-22T00:26:29;99617.25;;;21.26;51.17
80747;BME280;76868;50.218;14.322;2024-03-22T00:28:55;99619.91;;;21.23;51.10
80747;BME280;76868;50.218;14.322;2024-03-22T00:31:22;99615.16;;;21.23;51.24
80747;BME280;76868;50.218;14.322;2024-03-22T00:33:48;99612.72;;;21.22;51.14
80747;BME280;76868;50.218;14.322;2024-03-22T00:36:13;99616.31;;;21.22;51.21
80747;BME280;76868;50.218;14.322;2024-03-22T00:38:38;99610.75;;;21.22;51.35
80747;BME280;76868;50.218;14.322;2024-03-22T00:41:04;99608.31;;;21.21;51.56
80747;BME280;76868;50.218;14.322;2024-03-22T00:43:29;99607.16;;;21.22;51.40
80747;BME280;76868;50.218;14.322;2024-03-22T00:45:55;99615.84;;;21.20;51.57
80747;BME280;76868;50.218;14.322;2024-03-22T00:48:20;99610.63;;;21.19;51.41
80747;BME280;76868;50.218;14.322;2024-03-22T00:50:45;99603.88;;;21.20;51.67
80747;BME280;76868;50.218;14.322;2024-03-22T00:53:11;99604.25;;;21.18;51.79
80747;BME280;76868;50.218;14.322;2024-03-22T00:55:37;99587.88;;;21.17;51.55
80747;BME280;76868;50.218;14.322;2024-03-22T00:58:03;99603.44;;;21.18;51.45
80747;BME280;76868;50.218;14.322;2024-03-22T01:00:28;99602.28;;;21.19;51.61
80747;BME280;76868;50.218;14.322;2024-03-22T01:02:53;99600.97;;;21.16;51.48
80747;BME280;76868;50.218;14.322;2024-03-22T01:05:19;99598.69;;;21.18;51.64
80747;BME280;76868;50.218;14.322;2024-03-22T01:07:44;99600.63;;;21.18;51.56
80747;BME280;76868;50.218;14.322;2024-03-22T01:10:10;99601.34;;;21.15;51.99
80747;BME280;76868;50.218;14.322;2024-03-22T01:12:36;99600.97;;;21.16;51.78
80747;BME280;76868;50.218;14.322;2024-03-22T01:15:02;99600.97;;;21.16;51.82
80747;BME280;76868;50.218;14.322;2024-03-22T01:17:28;99607.56;;;21.12;51.60
80747;BME280;76868;50.218;14.322;2024-03-22T01:19:53;99610.50;;;21.15;51.90
80747;BME280;76868;50.218;14.322;2024-03-22T01:22:19;99602.94;;;21.16;51.80
80747;BME280;76868;50.218;14.322;2024-03-22T01:24:45;99594.94;;;21.14;52.06
80747;BME280;76868;50.218;14.322;2024-03-22T01:27:10;99597.72;;;21.14;51.81
80747;BME280;76868;50.218;14.322;2024-03-22T01:29:36;99592.16;;;21.14;51.85
80747;BME280;76868;50.218;14.322;2024-03-22T01:32:02;99598.56;;;21.15;51.88
80747;BME280;76868;50.218;14.322;2024-03-22T01:34:27;99590.19;;;21.15;51.49
80747;BME280;76868;50.218;14.322;2024-03-22T01:36:52;99587.47;;;21.06;51.52
80747;BME280;76868;50.218;14.322;2024-03-22T01:39:21;99593.81;;;21.15;51.62
80747;BME280;76868;50.218;14.322;2024-03-22T01:41:50;99596.09;;;21.13;51.89
80747;BME280;76868;50.218;14.322;2024-03-22T01:44:16;99591.81;;;21.16;51.79
80747;BME280;76868;50.218;14.322;2024-03-22T01:46:42;99599.38;;;21.15;51.73
80747;BME280;76868;50.218;14.322;2024-03-22T01:49:10;99594.25;;;21.17;51.49
80747;BME280;76868;50.218;14.322;2024-03-22T01:51:37;99590.19;;;21.15;51.80
80747;BME280;76868;50.218;14.322;2024-03-22T01:54:03;99577.88;;;21.16;51.47
80747;BME280;76868;50.218;14.322;2024-03-22T01:56:29;99575.47;;;21.14;51.83
80747;BME280;76868;50.218;14.322;2024-03-22T01:58:56;99579.19;;;21.18;51.44
80747;BME280;76868;50.218;14.322;2024-03-22T02:01:21;99571.53;;;21.15;51.94
80747;BME280;76868;50.218;14.322;2024-03-22T02:03:47;99566.44;;;21.17;51.80
80747;BME280;76868;50.218;14.322;2024-03-22T02:06:12;99566.88;;;21.19;51.82
80747;BME280;76868;50.218;14.322;2024-03-22T02:08:38;99569.66;;;21.19;51.59
80747;BME280;76868;50.218;14.322;2024-03-22T02:11:05;99558.53;;;21.19;51.48
80747;BME280;76868;50.218;14.322;2024-03-22T02:13:31;99552.06;;;21.15;51.61
80747;BME280;76868;50.218;14.322;2024-03-22T02:15:56;99554.16;;;21.18;51.87
80747;BME280;76868;50.218;14.322;2024-03-22T02:18:22;99550.19;;;21.19;51.96
80747;BME280;76868;50.218;14.322;2024-03-22T02:20:48;99545.44;;;21.20;51.95
80747;BME280;76868;50.218;14.322;2024-03-22T02:23:13;99540.22;;;21.18;51.81
80747;BME280;76868;50.218;14.322;2024-03-22T02:25:38;99534.28;;;21.20;51.91
80747;BME280;76868;50.218;14.322;2024-03-22T02:28:04;99523.16;;;21.20;51.77
80747;BME280;76868;50.218;14.322;2024-03-22T02:30:29;99521.69;;;21.22;51.57
80747;BME280;76868;50.218;14.322;2024-03-22T02:32:55;99513.31;;;21.22;51.89
80747;BME280;76868;50.218;14.322;2024-03-22T02:35:20;99512.84;;;21.20;51.58
80747;BME280;76868;50.218;14.322;2024-03-22T02:37:45;99500.44;;;21.18;51.86
80747;BME280;76868;50.218;14.322;2024-03-22T02:40:11;99502.53;;;21.21;51.97
80747;BME280;76868;50.218;14.322;2024-03-22T02:42:37;99490.25;;;21.22;51.90
80747;BME280;76868;50.218;14.322;2024-03-22T02:45:02;99494.66;;;21.23;51.56
80747;BME280;76868;50.218;14.322;2024-03-22T02:47:27;99479.31;;;21.17;51.84
80747;BME280;76868;50.218;14.322;2024-03-22T02:49:53;99479.94;;;21.22;51.88
80747;BME280;76868;50.218;14.322;2024-03-22T02:52:18;99471.78;;;21.17;51.59
80747;BME280;76868;50.218;14.322;2024-03-22T02:54:43;99475.28;;;21.14;51.67
80747;BME280;76868;50.218;14.322;2024-03-22T02:57:09;99477.81;;;21.19;51.85
80747;BME280;76868;50.218;14.322;2024-03-22T02:59:34;99477.03;;;21.19;51.56
80747;BME280;76868;50.218;14.322;2024-03-22T03:01:59;99485.50;;;21.22;51.59
80747;BME280;76868;50.218;14.322;2024-03-22T03:04:25;99482.72;;;21.22;51.59
80747;BME280;76868;50.218;14.322;2024-03-22T03:06:50;99479.56;;;21.24;51.86
80747;BME280;76868;50.218;14.322;2024-03-22T03:09:15;99476.78;;;21.24;52.02
80747;BME280;76868;50.218;14.322;2024-03-22T03:11:41;99466.47;;;21.24;51.63
80747;BME280;76868;50.218;14.322;2024-03-22T03:14:06;99459.25;;;21.23;51.88
80747;BME280;76868;50.218;14.322;2024-03-22T03:16:32;99462.03;;;21.23;51.77
80747;BME280;76868;50.218;14.322;2024-03-22T03:18:57;99463.69;;;21.24;51.73
80747;BME280;76868;50.218;14.322;2024-03-22T03:21:22;99467.63;;;21.23;51.79
80747;BME280;76868;50.218;14.322;2024-03-22T03:23:48;99464.03;;;21.23;51.50
80747;BME280;76868;50.218;14.322;2024-03-22T03:26:13;99466.81;;;21.23;51.79
80747;BME280;76868;50.218;14.322;2024-03-22T03:28:38;99471.56;;;21.22;51.66
80747;BME280;76868;50.218;14.322;2024-03-22T03:31:04;99457.66;;;21.22;51.59
80747;BME280;76868;50.218;14.322;2024-03-22T03:33:29;99455.69;;;21.23;51.87
80747;BME280;76868;50.218;14.322;2024-03-22T03:35:54;99451.59;;;21.20;51.88
80747;BME280;76868;50.218;14.322;2024-03-22T03:38:20;99451.59;;;21.20;51.85
80747;BME280;76868;50.218;14.322;2024-03-22T03:40:46;99450.47;;;21.21;51.78
80747;BME280;76868;50.218;14.322;2024-03-22T03:43:12;99450.78;;;21.20;51.65
80747;BME280;76868;50.218;14.322;2024-03-22T03:45:37;99446.84;;;21.21;52.09
80747;BME280;76868;50.218;14.322;2024-03-22T03:48:02;99447.69;;;21.21;52.08
80747;BME280;76868;50.218;14.322;2024-03-22T03:50:28;99452.44;;;21.21;51.76
80747;BME280;76868;50.218;14.322;2024-03-22T03:52:53;99446.53;;;21.22;51.90
80747;BME280;76868;50.218;14.322;2024-03-22T03:55:18;99444.56;;;21.23;51.83
80747;BME280;76868;50.218;14.322;2024-03-22T03:57:43;99443.75;;;21.22;51.69
80747;BME280;76868;50.218;14.322;2024-03-22T04:00:09;99438.19;;;21.22;51.78
80747;BME280;76868;50.218;14.322;2024-03-22T04:02:34;99439.31;;;21.21;51.72
80747;BME280;76868;50.218;14.322;2024-03-22T04:05:00;99447.69;;;21.21;52.13
80747;BME280;76868;50.218;14.322;2024-03-22T04:07:25;99446.03;;;21.20;51.91
80747;BME280;76868;50.218;14.322;2024-03-22T04:09:50;99438.84;;;21.19;51.73
80747;BME280;76868;50.218;14.322;2024-03-22T04:12:16;99443.63;;;21.19;51.91
80747;BME280;76868;50.218;14.322;2024-03-22T04:14:42;99438.84;;;21.19;51.75
80747;BME280;76868;50.218;14.322;2024-03-22T04:17:07;99448.81;;;21.20;52.02
80747;BME280;76868;50.218;14.322;2024-03-22T04:19:32;99435.63;;;21.17;51.95
80747;BME280;76868;50.218;14.322;2024-03-22T04:21:57;99438.06;;;21.19;51.83
80747;BME280;76868;50.218;14.322;2024-03-22T04:24:23;99437.25;;;21.18;52.25
80747;BME280;76868;50.218;14.322;2024-03-22T04:26:48;99437.25;;;21.18;51.85
80747;BME280;76868;50.218;14.322;2024-03-22T04:29:13;99435.28;;;21.19;52.15
80747;BME280;76868;50.218;14.322;2024-03-22T04:31:39;99435.28;;;21.19;52.08
80747;BME280;76868;50.218;14.322;2024-03-22T04:34:04;99436.88;;;21.20;52.01
80747;BME280;76868;50.218;14.322;2024-03-22T04:36:32;99428.53;;;21.20;51.81
80747;BME280;76868;50.218;14.322;2024-03-22T04:38:57;99439.66;;;21.20;52.07
80747;BME280;76868;50.218;14.322;2024-03-22T04:41:23;99435.28;;;21.19;52.25
80747;BME280;76868;50.218;14.322;2024-03-22T04:43:48;99435.28;;;21.19;51.80
80747;BME280;76868;50.218;14.322;2024-03-22T04:46:13;99431.91;;;21.13;52.18
80747;BME280;76868;50.218;14.322;2024-03-22T04:48:39;99428.06;;;21.18;51.86
80747;BME280;76868;50.218;14.322;2024-03-22T04:51:04;99432.81;;;21.17;51.75
80747;BME280;76868;50.218;14.322;2024-03-22T04:53:30;99425.63;;;21.16;52.28
80747;BME280;76868;50.218;14.322;2024-03-22T04:55:55;99423.66;;;21.17;51.92
80747;BME280;76868;50.218;14.322;2024-03-22T04:58:21;99420.88;;;21.17;51.92
80747;BME280;76868;50.218;14.322;2024-03-22T05:00:47;99421.25;;;21.15;52.15
80747;BME280;76868;50.218;14.322;2024-03-22T05:03:13;99418.91;;;21.17;51.97
80747;BME280;76868;50.218;14.322;2024-03-22T05:05:39;99422.84;;;21.16;52.03
80747;BME280;76868;50.218;14.322;2024-03-22T05:08:05;99426.44;;;21.17;51.98
80747;BME280;76868;50.218;14.322;2024-03-22T05:10:31;99429.94;;;21.14;51.96
80747;BME280;76868;50.218;14.322;2024-03-22T05:12:57;99430.84;;;21.18;52.04
80747;BME280;76868;50.218;14.322;2024-03-22T05:15:23;99437.56;;;21.17;52.08
80747;BME280;76868;50.218;14.322;2024-03-22T05:17:51;99436.44;;;21.18;51.95
80747;BME280;76868;50.218;14.322;2024-03-22T05:20:16;99438.41;;;21.17;51.95
80747;BME280;76868;50.218;14.322;2024-03-22T05:22:42;99435.63;;;21.17;51.89
80747;BME280;76868;50.218;14.322;2024-03-22T05:25:08;99437.56;;;21.17;51.94
80747;BME280;76868;50.218;14.322;2024-03-22T05:27:34;99437.25;;;21.18;52.32
80747;BME280;76868;50.218;14.322;2024-03-22T05:29:59;99430.84;;;21.18;51.98
80747;BME280;76868;50.218;14.322;2024-03-22T05:32:25;99436.44;;;21.18;51.82
80747;BME280;76868;50.218;14.322;2024-03-22T05:34:51;99434.78;;;21.17;51.88
80747;BME280;76868;50.218;14.322;2024-03-22T05:37:16;99428.41;;;21.16;51.92
80747;BME280;76868;50.218;14.322;2024-03-22T05:39:42;99422.84;;;21.16;51.82
80747;BME280;76868;50.218;14.322;2024-03-22T05:42:07;99430.03;;;21.17;51.75
80747;BME280;76868;50.218;14.322;2024-03-22T05:44:33;99423.53;;;21.13;51.91
80747;BME280;76868;50.218;14.322;2024-03-22T05:46:58;99413.22;;;21.14;51.23
80747;BME280;76868;50.218;14.322;2024-03-22T05:49:23;99419.94;;;21.13;51.53
80747;BME280;76868;50.218;14.322;2024-03-22T05:51:49;99415.19;;;21.13;51.09
80747;BME280;76868;50.218;14.322;2024-03-22T05:54:14;99419.94;;;21.13;51.14
80747;BME280;76868;50.218;14.322;2024-03-22T05:56:40;99419.63;;;21.14;51.09
80747;BME280;76868;50.218;14.322;2024-03-22T05:59:05;99417.97;;;21.13;51.43
80747;BME280;76868;50.218;14.322;2024-03-22T06:01:31;99425.19;;;21.14;51.54
80747;BME280;76868;50.218;14.322;2024-03-22T06:03:57;99421.91;;;21.12;51.76
80747;BME280;76868;50.218;14.322;2024-03-22T06:06:23;99425.88;;;21.11;51.53
80747;BME280;76868;50.218;14.322;2024-03-22T06:08:51;99418.47;;;21.15;51.53
80747;BME280;76868;50.218;14.322;2024-03-22T06:11:22;99415.69;;;21.15;51.83
80747;BME280;76868;50.218;14.322;2024-03-22T06:13:47;99414.50;;;21.16;51.62
80747;BME280;76868;50.218;14.322;2024-03-22T06:16:13;99414.16;;;21.18;51.79
80747;BME280;76868;50.218;14.322;2024-03-22T06:18:39;99407.78;;;21.17;51.80
80747;BME280;76868;50.218;14.322;2024-03-22T06:21:04;99412.53;;;21.17;51.87
80747;BME280;76868;50.218;14.322;2024-03-22T06:23:30;99408.59;;;21.18;51.62
80747;BME280;76868;50.218;14.322;2024-03-22T06:25:55;99415.44;;;21.20;51.87
80747;BME280;76868;50.218;14.322;2024-03-22T06:28:21;99414.97;;;21.18;51.74
80747;BME280;76868;50.218;14.322;2024-03-22T06:30:46;99396.19;;;21.15;51.95
80747;BME280;76868;50.218;14.322;2024-03-22T06:33:12;99402.66;;;21.19;51.84
80747;BME280;76868;50.218;14.322;2024-03-22T06:35:38;99405.09;;;21.21;52.02
80747;BME280;76868;50.218;14.322;2024-03-22T06:38:03;99397.56;;;21.21;51.75
80747;BME280;76868;50.218;14.322;2024-03-22T06:40:29;99397.56;;;21.21;51.95
80747;BME280;76868;50.218;14.322;2024-03-22T06:42:55;99402.00;;;21.22;52.14
80747;BME280;76868;50.218;14.322;2024-03-22T06:45:20;99393.63;;;21.22;52.00
80747;BME280;76868;50.218;14.322;2024-03-22T06:47:45;99396.41;;;21.22;52.16
80747;BME280;76868;50.218;14.322;2024-03-22T06:50:11;99396.06;;;21.24;52.48
80747;BME280;76868;50.218;14.322;2024-03-22T06:52:36;99383.31;;;21.23;52.32
80747;BME280;76868;50.218;14.322;2024-03-22T06:55:02;99387.38;;;21.25;52.20
80747;BME280;76868;50.218;14.322;2024-03-22T06:57:28;99387.38;;;21.25;52.38
80747;BME280;76868;50.218;14.322;2024-03-22T06:59:53;99379.84;;;21.26;52.61
80747;BME280;76868;50.218;14.322;2024-03-22T07:02:19;99382.25;;;21.27;52.69
80747;BME280;76868;50.218;14.322;2024-03-22T07:04:45;99383.88;;;21.28;52.56
80747;BME280;76868;50.218;14.322;2024-03-22T07:07:10;99378.66;;;21.27;52.29
80747;BME280;76868;50.218;14.322;2024-03-22T07:09:36;99377.88;;;21.26;52.17
80747;BME280;76868;50.218;14.322;2024-03-22T07:12:01;99372.75;;;21.28;52.33
80747;BME280;76868;50.218;14.322;2024-03-22T07:14:26;99375.19;;;21.30;52.42
80747;BME280;76868;50.218;14.322;2024-03-22T07:16:52;99368.81;;;21.29;52.79
80747;BME280;76868;50.218;14.322;2024-03-22T07:19:20;99366.03;;;21.29;52.27
80747;BME280;76868;50.218;14.322;2024-03-22T07:21:46;99364.88;;;21.30;52.57
80747;BME280;76868;50.218;14.322;2024-03-22T07:24:12;99372.41;;;21.30;52.52
80747;BME280;76868;50.218;14.322;2024-03-22T07:26:37;99367.66;;;21.30;52.59
80747;BME280;76868;50.218;14.322;2024-03-22T07:29:02;99362.88;;;21.31;53.02
80747;BME280;76868;50.218;14.322;2024-03-22T07:31:28;99367.28;;;21.32;52.64
80747;BME280;76868;50.218;14.322;2024-03-22T07:33:53;99366.13;;;21.33;52.68
80747;BME280;76868;50.218;14.322;2024-03-22T07:36:19;99358.59;;;21.33;53.01
80747;BME280;76868;50.218;14.322;2024-03-22T07:38:45;99360.22;;;21.34;53.03
80747;BME280;76868;50.218;14.322;2024-03-22T07:41:10;99352.66;;;21.35;52.70
80747;BME280;76868;50.218;14.322;2024-03-22T07:43:36;99341.53;;;21.35;52.62
80747;BME280;76868;50.218;14.322;2024-03-22T07:46:01;99348.72;;;21.36;52.97
80747;BME280;76868;50.218;14.322;2024-03-22T07:48:26;99348.38;;;21.37;52.68
80747;BME280;76868;50.218;14.322;2024-03-22T07:50:58;99352.78;;;21.38;52.98
80747;BME280;76868;50.218;14.322;2024-03-22T07:53:24;99347.19;;;21.38;53.02
80747;BME280;76868;50.218;14.322;2024-03-22T07:55:50;99341.63;;;21.38;52.55
80747;BME280;76868;50.218;14.322;2024-03-22T07:58:15;99345.72;;;21.41;52.79
80747;BME280;76868;50.218;14.322;2024-03-22T08:00:40;99336.66;;;21.44;52.91
80747;BME280;76868;50.218;14.322;2024-03-22T08:03:06;99326.22;;;21.41;52.36
80747;BME280;76868;50.218;14.322;2024-03-22T08:05:32;99325.84;;;21.42;47.46
80747;BME280;76868;50.218;14.322;2024-03-22T08:07:58;99323.56;;;21.32;47.21
80747;BME280;76868;50.218;14.322;2024-03-22T08:10:23;99319.72;;;21.37;49.71
80747;BME280;76868;50.218;14.322;2024-03-22T08:12:49;99319.38;;;21.38;50.07
80747;BME280;76868;50.218;14.322;2024-03-22T08:15:14;99320.28;;;21.42;50.60
80747;BME280;76868;50.218;14.322;2024-03-22T08:17:40;99326.78;;;21.46;50.64
80747;BME280;76868;50.218;14.322;2024-03-22T08:20:06;99314.47;;;21.47;51.12
80747;BME280;76868;50.218;14.322;2024-03-22T08:22:32;99325.38;;;21.52;50.92
80747;BME280;76868;50.218;14.322;2024-03-22T08:24:57;99310.41;;;21.57;51.31
80747;BME280;76868;50.218;14.322;2024-03-22T08:27:22;99309.22;;;21.58;51.09
80747;BME280;76868;50.218;14.322;2024-03-22T08:29:48;99313.75;;;21.63;51.15
80747;BME280;76868;50.218;14.322;2024-03-22T08:32:13;99310.63;;;21.64;51.31
80747;BME280;76868;50.218;14.322;2024-03-22T08:34:38;99320.56;;;21.65;51.64
80747;BME280;76868;50.218;14.322;2024-03-22T08:37:04;99313.50;;;21.68;51.54
80747;BME280;76868;50.218;14.322;2024-03-22T08:39:29;99313.94;;;21.70;51.57
80747;BME280;76868;50.218;14.322;2024-03-22T08:41:55;99307.22;;;21.71;52.19
80747;BME280;76868;50.218;14.322;2024-03-22T08:44:20;99307.66;;;21.73;51.83
80747;BME280;76868;50.218;14.322;2024-03-22T08:46:45;99304.53;;;21.74;51.92
80747;BME280;76868;50.218;14.322;2024-03-22T08:49:11;99302.09;;;21.73;51.97
80747;BME280;76868;50.218;14.322;2024-03-22T08:51:37;99291.88;;;21.77;52.42
80747;BME280;76868;50.218;14.322;2024-03-22T08:54:03;99291.88;;;21.77;52.68
80747;BME280;76868;50.218;14.322;2024-03-22T08:56:29;99291.53;;;21.78;52.57
80747;BME280;76868;50.218;14.322;2024-03-22T08:58:54;99273.19;;;21.77;52.42
80747;BME280;76868;50.218;14.322;2024-03-22T09:01:20;99266.44;;;21.78;52.12
80747;BME280;76868;50.218;14.322;2024-03-22T09:03:45;99280.72;;;21.77;52.76
80747;BME280;76868;50.218;14.322;2024-03-22T09:06:12;99271.22;;;21.78;52.61
80747;BME280;76868;50.218;14.322;2024-03-22T09:08:37;99273.56;;;21.76;52.12
80747;BME280;76868;50.218;14.322;2024-03-22T09:11:03;99271.22;;;21.78;52.56
80747;BME280;76868;50.218;14.322;2024-03-22T09:13:28;99254.50;;;21.78;52.33
80747;BME280;76868;50.218;14.322;2024-03-22T09:15:57;99260.88;;;21.78;52.70
80747;BME280;76868;50.218;14.322;2024-03-22T09:18:22;99250.56;;;21.79;52.08
80747;BME280;76868;50.218;14.322;2024-03-22T09:20:48;99250.06;;;21.77;52.46
80747;BME280;76868;50.218;14.322;2024-03-22T09:23:13;99247.75;;;21.79;52.34
80747;BME280;76868;50.218;14.322;2024-03-22T09:25:38;99247.75;;;21.79;52.46
80747;BME280;76868;50.218;14.322;2024-03-22T09:28:04;99253.34;;;21.79;52.23
80747;BME280;76868;50.218;14.322;2024-03-22T09:30:29;99246.59;;;21.80;52.36
80747;BME280;76868;50.218;14.322;2024-03-22T09:32:55;99236.97;;;21.77;52.48
80747;BME280;76868;50.218;14.322;2024-03-22T09:35:20;99249.41;;;21.80;52.48
80747;BME280;76868;50.218;14.322;2024-03-22T09:37:46;99249.03;;;21.81;52.60
80747;BME280;76868;50.218;14.322;2024-03-22T09:40:12;99246.09;;;21.62;42.14
80747;BME280;76868;50.218;14.322;2024-03-22T09:42:38;99242.31;;;21.42;39.70
80747;BME280;76868;50.218;14.322;2024-03-22T09:45:08;99246.44;;;21.33;38.12
80747;BME280;76868;50.218;14.322;2024-03-22T09:47:34;99241.50;;;21.14;37.57
80747;BME280;76868;50.218;14.322;2024-03-22T09:50:00;99239.63;;;21.18;41.58
80747;BME280;76868;50.218;14.322;2024-03-22T09:52:26;99242.72;;;21.29;44.00
80747;BME280;76868;50.218;14.322;2024-03-22T09:54:52;99241.31;;;21.35;45.42
80747;BME280;76868;50.218;14.322;2024-03-22T09:57:18;99234.34;;;21.41;46.06
80747;BME280;76868;50.218;14.322;2024-03-22T09:59:45;99239.31;;;21.47;46.58
80747;BME280;76868;50.218;14.322;2024-03-22T10:02:11;99227.34;;;21.47;46.66
80747;BME280;76868;50.218;14.322;2024-03-22T10:04:40;99232.78;;;21.56;46.96
80747;BME280;76868;50.218;14.322;2024-03-22T10:07:06;99228.84;;;21.57;47.56
80747;BME280;76868;50.218;14.322;2024-03-22T10:09:33;99222.19;;;21.61;47.96
80747;BME280;76868;50.218;14.322;2024-03-22T10:11:59;99230.19;;;21.63;47.97
80747;BME280;76868;50.218;14.322;2024-03-22T10:14:24;99223.91;;;21.66;48.10
80747;BME280;76868;50.218;14.322;2024-03-22T10:16:53;99223.91;;;21.66;48.37
80747;BME280;76868;50.218;14.322;2024-03-22T10:19:22;99223.91;;;21.66;48.48
80747;BME280;76868;50.218;14.322;2024-03-22T10:21:59;99214.84;;;21.69;48.33
80747;BME280;76868;50.218;14.322;2024-03-22T10:24:25;99219.25;;;21.70;48.91
80747;BME280;76868;50.218;14.322;2024-03-22T10:26:50;99210.88;;;21.70;48.67
80747;BME280;76868;50.218;14.322;2024-03-22T10:29:16;99217.28;;;21.70;49.23
80747;BME280;76868;50.218;14.322;2024-03-22T10:31:42;99195.81;;;21.71;49.26
80747;BME280;76868;50.218;14.322;2024-03-22T10:34:09;99201.81;;;21.73;49.39
80747;BME280;76868;50.218;14.322;2024-03-22T10:36:36;99210.16;;;21.73;49.13
80747;BME280;76868;50.218;14.322;2024-03-22T10:39:01;99198.69;;;21.74;49.40
80747;BME280;76868;50.218;14.322;2024-03-22T10:41:29;99191.47;;;21.73;49.37
80747;BME280;76868;50.218;14.322;2024-03-22T10:43:54;99195.19;;;21.77;49.74
80747;BME280;76868;50.218;14.322;2024-03-22T10:46:20;99200.41;;;21.79;49.58
80747;BME280;76868;50.218;14.322;2024-03-22T10:48:46;99195.28;;;21.81;50.00
80747;BME280;76868;50.218;14.322;2024-03-22T10:51:14;99181.34;;;21.81;50.03
80747;BME280;76868;50.218;14.322;2024-03-22T10:53:41;99192.22;;;21.86;49.74
80747;BME280;76868;50.218;14.322;2024-03-22T10:56:07;99185.25;;;21.92;49.71
80747;BME280;76868;50.218;14.322;2024-03-22T10:58:35;99181.78;;;21.95;49.65
80747;BME280;76868;50.218;14.322;2024-03-22T11:01:04;99179.97;;;22.03;49.73
80747;BME280;76868;50.218;14.322;2024-03-22T11:03:30;99177.38;;;22.10;49.64
80747;BME280;76868;50.218;14.322;2024-03-22T11:05:56;99172.31;;;22.15;49.72
80747;BME280;76868;50.218;14.322;2024-03-22T11:08:29;99176.09;;;22.23;50.00
80747;BME280;76868;50.218;14.322;2024-03-22T11:11:11;99165.84;;;22.27;49.32
80747;BME280;76868;50.218;14.322;2024-03-22T11:13:39;99162.31;;;22.30;49.95
80747;BME280;76868;50.218;14.322;2024-03-22T11:16:05;99158.84;;;22.33;49.50
80747;BME280;76868;50.218;14.322;2024-03-22T11:18:30;99148.94;;;22.35;49.89
80747;BME280;76868;50.218;14.322;2024-03-22T11:20:56;99154.16;;;22.37;49.48
80747;BME280;76868;50.218;14.322;2024-03-22T11:23:21;99146.22;;;22.39;49.73
80747;BME280;76868;50.218;14.322;2024-03-22T11:25:46;99141.91;;;22.41;49.79
80747;BME280;76868;50.218;14.322;2024-03-22T11:28:12;99134.41;;;22.45;49.68
80747;BME280;76868;50.218;14.322;2024-03-22T11:30:38;99132.91;;;22.48;49.87
80747;BME280;76868;50.218;14.322;2024-03-22T11:33:04;99130.19;;;22.52;49.91
80747;BME280;76868;50.218;14.322;2024-03-22T11:35:30;99127.41;;;22.52;49.72
80747;BME280;76868;50.218;14.322;2024-03-22T11:37:55;99128.31;;;22.56;49.91
80747;BME280;76868;50.218;14.322;2024-03-22T11:40:25;99117.94;;;22.56;50.32
80747;BME280;76868;50.218;14.322;2024-03-22T11:42:52;99124.78;;;22.59;49.64
80747;BME280;76868;50.218;14.322;2024-03-22T11:45:19;99113.63;;;22.59;50.20
80747;BME280;76868;50.218;14.322;2024-03-22T11:47:46;99111.25;;;22.61;50.16
80747;BME280;76868;50.218;14.322;2024-03-22T11:50:12;99108.13;;;22.62;49.37
80747;BME280;76868;50.218;14.322;2024-03-22T11:52:39;99102.81;;;22.57;47.78
80747;BME280;76868;50.218;14.322;2024-03-22T11:55:05;99108.31;;;22.54;47.30
80747;BME280;76868;50.218;14.322;2024-03-22T11:57:31;99097.16;;;22.54;48.46
80747;BME280;76868;50.218;14.322;2024-03-22T11:59:59;99098.78;;;22.55;48.74
80747;BME280;76868;50.218;14.322;2024-03-22T12:02:25;99089.25;;;22.56;48.73
80747;BME280;76868;50.218;14.322;2024-03-22T12:04:51;99085.19;;;22.53;48.69
80747;BME280;76868;50.218;14.322;2024-03-22T12:07:17;99079.69;;;22.57;49.34
80747;BME280;76868;50.218;14.322;2024-03-22T12:09:44;99076.97;;;22.60;49.08
80747;BME280;76868;50.218;14.322;2024-03-22T12:12:10;99068.19;;;22.58;49.61
80747;BME280;76868;50.218;14.322;2024-03-22T12:14:36;99069.00;;;22.59;49.60
80747;BME280;76868;50.218;14.322;2024-03-22T12:17:02;99060.63;;;22.59;49.64
80747;BME280;76868;50.218;14.322;2024-03-22T12:19:27;99049.41;;;22.55;49.99
80747;BME280;76868;50.218;14.322;2024-03-22T12:21:53;99039.06;;;22.56;49.77
80747;BME280;76868;50.218;14.322;2024-03-22T12:24:18;99035.44;;;22.55;50.06
80747;BME280;76868;50.218;14.322;2024-03-22T12:26:43;99031.13;;;22.58;49.94
80747;BME280;76868;50.218;14.322;2024-03-22T12:29:09;99013.06;;;22.52;50.75
80747;BME280;76868;50.218;14.322;2024-03-22T12:31:37;99024.22;;;22.52;51.36
80747;BME280;76868;50.218;14.322;2024-03-22T12:34:02;99015.41;;;22.49;51.47
80747;BME280;76868;50.218;14.322;2024-03-22T12:36:28;99011.00;;;22.48;51.37
80747;BME280;76868;50.218;14.322;2024-03-22T12:38:53;99003.44;;;22.49;51.20
80747;BME280;76868;50.218;14.322;2024-03-22T12:41:18;99001.38;;;22.46;51.56
80747;BME280;76868;50.218;14.322;2024-03-22T12:43:44;99003.28;;;22.42;51.61